sensor_id;sensor_type;location;lat;lon;timestamp;pressure;altitude;pressure_sealevel;temperature;humidity
30338;BME280;17143;51.888;5.408;2023-06-24T00:03:30;102269.41;;;21.62;87.65
30338;BME280;17143;51.888;5.408;2023-06-24T00:18:32;102274.72;;;21.63;87.51
30338;BME280;17143;51.888;5.408;2023-06-24T00:33:34;102283.41;;;21.58;87.68
30338;BME280;17143;51.888;5.408;2023-06-24T00:48:36;102281.13;;;21.42;88.18
30338;BME280;17143;51.888;5.408;2023-06-24T01:03:38;102285.78;;;21.23;89.27
30338;BME280;17143;51.888;5.408;2023-06-24T01:18:44;102267.34;;;21.01;88.00
30338;BME280;17143;51.888;5.408;2023-06-24T01:33:51;102263.06;;;20.81;88.69
30338;BME280;17143;51.888;5.408;2023-06-24T01:49:00;102256.22;;;20.62;88.48
30338;BME280;17143;51.888;5.408;2023-06-24T02:04:04;102243.19;;;20.43;86.56
30338;BME280;17143;51.888;5.408;2023-06-24T02:19:09;102247.66;;;20.22;85.51
30338;BME280;17143;51.888;5.408;2023-06-24T02:34:12;102238.00;;;20.00;85.97
30338;BME280;17143;51.888;5.408;2023-06-24T02:49:15;102243.41;;;19.81;86.66
30338;BME280;17143;51.888;5.408;2023-06-24T03:04:18;102225.13;;;19.65;86.58
30338;BME280;17143;51.888;5.408;2023-06-24T03:19:22;102236.25;;;19.36;85.83
30338;BME280;17143;51.888;5.408;2023-06-24T03:34:24;102242.00;;;19.26;86.19
30338;BME280;17143;51.888;5.408;2023-06-24T03:49:28;102244.25;;;19.17;86.55
30338;BME280;17143;51.888;5.408;2023-06-24T04:04:30;102249.53;;;19.17;87.11
30338;BME280;17143;51.888;5.408;2023-06-24T04:19:32;102256.78;;;19.21;87.62
30338;BME280;17143;51.888;5.408;2023-06-24T04:34:36;102253.94;;;19.37;87.24
30338;BME280;17143;51.888;5.408;2023-06-24T04:49:38;102264.69;;;24.95;75.33
30338;BME280;17143;51.888;5.408;2023-06-24T05:04:40;102265.59;;;27.67;63.52
30338;BME280;17143;51.888;5.408;2023-06-24T05:19:42;102260.78;;;28.76;56.94
30338;BME280;17143;51.888;5.408;2023-06-24T05:34:44;102268.00;;;29.16;53.90
30338;BME280;17143;51.888;5.408;2023-06-24T05:49:46;102284.16;;;29.62;51.97
30338;BME280;17143;51.888;5.408;2023-06-24T06:04:50;102284.13;;;29.28;50.71
30338;BME280;17143;51.888;5.408;2023-06-24T06:19:52;102285.00;;;29.17;49.73
30338;BME280;17143;51.888;5.408;2023-06-24T06:34:54;102303.78;;;29.18;50.43
30338;BME280;17143;51.888;5.408;2023-06-24T06:49:56;102301.16;;;29.62;50.10
30338;BME280;17143;51.888;5.408;2023-06-24T07:04:58;102303.78;;;30.09;47.46
30338;BME280;17143;51.888;5.408;2023-06-24T07:20:00;102319.81;;;30.45;45.01
30338;BME280;17143;51.888;5.408;2023-06-24T07:35:02;102310.00;;;30.41;45.22
30338;BME280;17143;51.888;5.408;2023-06-24T07:50:05;102312.50;;;30.77;43.28
30338;BME280;17143;51.888;5.408;2023-06-24T08:05:08;102308.97;;;30.66;42.75
30338;BME280;17143;51.888;5.408;2023-06-24T08:20:11;102306.69;;;31.41;42.83
30338;BME280;17143;51.888;5.408;2023-06-24T08:35:13;102303.56;;;31.88;42.03
30338;BME280;17143;51.888;5.408;2023-06-24T08:50:16;102295.91;;;32.32;39.77
30338;BME280;17143;51.888;5.408;2023-06-24T09:05:19;102291.31;;;32.40;39.76
30338;BME280;17143;51.888;5.408;2023-06-24T09:20:21;102283.75;;;32.68;40.75
30338;BME280;17143;51.888;5.408;2023-06-24T09:35:24;102271.94;;;32.75;39.43
30338;BME280;17143;51.888;5.408;2023-06-24T09:50:27;102260.25;;;32.76;40.44
30338;BME280;17143;51.888;5.408;2023-06-24T10:05:29;102261.44;;;33.17;38.71
30338;BME280;17143;51.888;5.408;2023-06-24T10:20:36;102261.13;;;33.35;40.13
30338;BME280;17143;51.888;5.408;2023-06-24T10:35:41;102252.66;;;33.54;40.28
30338;BME280;17143;51.888;5.408;2023-06-24T10:50:43;102241.16;;;33.91;39.24
30338;BME280;17143;51.888;5.408;2023-06-24T11:05:46;102231.63;;;33.73;38.92
30338;BME280;17143;51.888;5.408;2023-06-24T11:20:48;102220.53;;;33.85;39.24
30338;BME280;17143;51.888;5.408;2023-06-24T11:35:50;102207.75;;;33.93;39.37
30338;BME280;17143;51.888;5.408;2023-06-24T11:50:54;102202.13;;;33.59;40.76
30338;BME280;17143;51.888;5.408;2023-06-24T12:05:57;102186.78;;;34.03;39.12
30338;BME280;17143;51.888;5.408;2023-06-24T12:20:59;102184.31;;;34.35;38.13
30338;BME280;17143;51.888;5.408;2023-06-24T12:36:01;102174.91;;;34.11;38.90
30338;BME280;17143;51.888;5.408;2023-06-24T12:51:03;102164.06;;;34.51;39.17
30338;BME280;17143;51.888;5.408;2023-06-24T13:06:05;102155.50;;;33.91;39.13
30338;BME280;17143;51.888;5.408;2023-06-24T13:21:07;102150.66;;;34.47;37.35
30338;BME280;17143;51.888;5.408;2023-06-24T13:36:25;102143.56;;;34.00;39.77
30338;BME280;17143;51.888;5.408;2023-06-24T13:51:29;102137.88;;;33.72;40.07
30338;BME280;17143;51.888;5.408;2023-06-24T14:06:31;102127.41;;;33.54;38.68
30338;BME280;17143;51.888;5.408;2023-06-24T14:21:33;102113.25;;;33.40;39.74
30338;BME280;17143;51.888;5.408;2023-06-24T14:36:35;102108.53;;;33.03;39.64
30338;BME280;17143;51.888;5.408;2023-06-24T14:51:37;102106.00;;;33.42;37.65
30338;BME280;17143;51.888;5.408;2023-06-24T15:06:39;102088.56;;;33.59;39.11
30338;BME280;17143;51.888;5.408;2023-06-24T15:21:41;102081.09;;;33.28;40.35
30338;BME280;17143;51.888;5.408;2023-06-24T15:36:43;102071.66;;;33.01;40.04
30338;BME280;17143;51.888;5.408;2023-06-24T15:51:45;102061.88;;;32.95;41.20
30338;BME280;17143;51.888;5.408;2023-06-24T16:06:47;102058.38;;;32.90;41.32
30338;BME280;17143;51.888;5.408;2023-06-24T16:21:49;102036.97;;;32.26;40.44
30338;BME280;17143;51.888;5.408;2023-06-24T16:36:51;102023.06;;;32.49;41.24
30338;BME280;17143;51.888;5.408;2023-06-24T16:51:53;102009.31;;;32.67;41.60
30338;BME280;17143;51.888;5.408;2023-06-24T17:06:55;102013.25;;;32.45;41.43
30338;BME280;17143;51.888;5.408;2023-06-24T17:21:57;102001.25;;;32.11;41.41
30338;BME280;17143;51.888;5.408;2023-06-24T17:36:59;101998.31;;;31.65;41.18
30338;BME280;17143;51.888;5.408;2023-06-24T17:52:01;101987.16;;;31.25;42.86
30338;BME280;17143;51.888;5.408;2023-06-24T18:07:04;101982.25;;;30.83;43.30
30338;BME280;17143;51.888;5.408;2023-06-24T18:22:06;101975.53;;;30.39;44.94
30338;BME280;17143;51.888;5.408;2023-06-24T18:37:08;101979.31;;;30.11;44.31
30338;BME280;17143;51.888;5.408;2023-06-24T18:52:10;101969.72;;;29.75;45.67
30338;BME280;17143;51.888;5.408;2023-06-24T19:07:12;101965.50;;;29.27;50.44
30338;BME280;17143;51.888;5.408;2023-06-24T19:22:14;101951.34;;;28.83;56.00
30338;BME280;17143;51.888;5.408;2023-06-24T19:37:16;101960.31;;;28.30;56.72
30338;BME280;17143;51.888;5.408;2023-06-24T19:52:18;101961.19;;;27.76;57.73
30338;BME280;17143;51.888;5.408;2023-06-24T20:07:20;101954.88;;;27.52;58.42
30338;BME280;17143;51.888;5.408;2023-06-24T20:22:23;101957.41;;;27.18;60.25
30338;BME280;17143;51.888;5.408;2023-06-24T20:37:25;101954.66;;;26.97;60.51
30338;BME280;17143;51.888;5.408;2023-06-24T20:52:27;101954.53;;;26.82;61.58
30338;BME280;17143;51.888;5.408;2023-06-24T21:07:29;101953.38;;;26.41;62.96
30338;BME280;17143;51.888;5.408;2023-06-24T21:22:31;101942.38;;;26.05;64.13
30338;BME280;17143;51.888;5.408;2023-06-24T21:37:33;101943.88;;;25.75;64.86
30338;BME280;17143;51.888;5.408;2023-06-24T21:52:35;101939.16;;;25.50;65.97
30338;BME280;17143;51.888;5.408;2023-06-24T22:07:37;101933.50;;;25.23;67.54
30338;BME280;17143;51.888;5.408;2023-06-24T22:22:42;101918.91;;;24.94;69.32
30338;BME280;17143;51.888;5.408;2023-06-24T22:37:44;101922.88;;;24.63;70.55
30338;BME280;17143;51.888;5.408;2023-06-24T22:52:47;101920.00;;;24.46;73.01
30338;BME280;17143;51.888;5.408;2023-06-24T23:07:49;101903.78;;;24.31;73.53
30338;BME280;17143;51.888;5.408;2023-06-24T23:22:52;101903.34;;;24.07;74.88
30338;BME280;17143;51.888;5.408;2023-06-24T23:37:54;101882.91;;;24.04;75.09
30338;BME280;17143;51.888;5.408;2023-06-24T23:52:56;101870.97;;;23.80;76.83
